sensor_id;sensor_type;location;lat;lon;timestamp;pressure;altitude;pressure_sealevel;temperature;humidity
64189;BME280;50493;50.970;10.082;2022-08-11T00:01:14;99938.22;;;21.85;31.79
64189;BME280;50493;50.970;10.082;2022-08-11T00:03:44;99941.16;;;21.81;31.72
64189;BME280;50493;50.970;10.082;2022-08-11T00:06:10;99934.03;;;21.81;31.72
64189;BME280;50493;50.970;10.082;2022-08-11T00:08:38;99936.88;;;21.78;31.72
64189;BME280;50493;50.970;10.082;2022-08-11T00:11:07;99939.34;;;21.81;31.64
64189;BME280;50493;50.970;10.082;2022-08-11T00:13:34;99942.41;;;21.75;31.92
64189;BME280;50493;50.970;10.082;2022-08-11T00:16:01;99943.53;;;21.71;31.88
64189;BME280;50493;50.970;10.082;2022-08-11T00:18:29;99940.88;;;21.71;31.73
64189;BME280;50493;50.970;10.082;2022-08-11T00:20:58;99938.38;;;21.68;31.59
64189;BME280;50493;50.970;10.082;2022-08-11T00:23:25;99935.28;;;21.60;31.92
64189;BME280;50493;50.970;10.082;2022-08-11T00:25:51;99938.31;;;21.53;31.92
64189;BME280;50493;50.970;10.082;2022-08-11T00:28:27;99946.91;;;21.43;32.15
64189;BME280;50493;50.970;10.082;2022-08-11T00:30:54;99945.38;;;21.38;32.24
64189;BME280;50493;50.970;10.082;2022-08-11T00:33:22;99944.88;;;21.32;32.28
64189;BME280;50493;50.970;10.082;2022-08-11T00:35:50;99947.63;;;21.30;32.15
64189;BME280;50493;50.970;10.082;2022-08-11T00:38:22;99950.72;;;21.23;32.45
64189;BME280;50493;50.970;10.082;2022-08-11T00:40:54;99947.28;;;21.20;32.48
64189;BME280;50493;50.970;10.082;2022-08-11T00:43:27;99956.22;;;21.19;32.45
64189;BME280;50493;50.970;10.082;2022-08-11T00:46:10;99943.00;;;21.18;32.46
64189;BME280;50493;50.970;10.082;2022-08-11T00:48:45;99940.78;;;21.10;32.53
64189;BME280;50493;50.970;10.082;2022-08-11T00:51:20;99932.56;;;20.99;32.80
64189;BME280;50493;50.970;10.082;2022-08-11T00:54:02;99948.06;;;20.91;32.83
64189;BME280;50493;50.970;10.082;2022-08-11T00:57:05;99937.69;;;20.86;33.10
64189;BME280;50493;50.970;10.082;2022-08-11T01:00:03;99942.47;;;20.79;33.16
64189;BME280;50493;50.970;10.082;2022-08-11T01:02:43;99940.16;;;20.73;33.22
64189;BME280;50493;50.970;10.082;2022-08-11T01:05:40;99937.69;;;20.70;33.12
64189;BME280;50493;50.970;10.082;2022-08-11T01:11:34;99938.19;;;20.61;33.31
64189;BME280;50493;50.970;10.082;2022-08-11T01:17:44;99940.91;;;20.43;33.59
64189;BME280;50493;50.970;10.082;2022-08-11T01:20:44;99939.69;;;20.33;33.51
64189;BME280;50493;50.970;10.082;2022-08-11T01:23:56;99937.53;;;20.24;33.69
64189;BME280;50493;50.970;10.082;2022-08-11T01:26:58;99935.63;;;20.26;33.61
64189;BME280;50493;50.970;10.082;2022-08-11T01:30:09;99930.75;;;20.18;33.59
64189;BME280;50493;50.970;10.082;2022-08-11T01:33:16;99936.91;;;20.18;33.63
64189;BME280;50493;50.970;10.082;2022-08-11T01:39:11;99940.66;;;20.14;33.56
64189;BME280;50493;50.970;10.082;2022-08-11T01:42:04;99939.66;;;20.17;33.37
64189;BME280;50493;50.970;10.082;2022-08-11T01:45:15;99936.59;;;20.07;33.63
64189;BME280;50493;50.970;10.082;2022-08-11T01:47:45;99941.59;;;19.96;33.56
64189;BME280;50493;50.970;10.082;2022-08-11T01:50:20;99936.75;;;19.86;34.03
64189;BME280;50493;50.970;10.082;2022-08-11T01:53:00;99939.81;;;19.79;34.23
64189;BME280;50493;50.970;10.082;2022-08-11T01:55:32;99939.28;;;19.72;34.04
64189;BME280;50493;50.970;10.082;2022-08-11T01:58:08;99943.63;;;19.73;34.21
64189;BME280;50493;50.970;10.082;2022-08-11T02:00:47;99942.78;;;19.73;34.19
64189;BME280;50493;50.970;10.082;2022-08-11T02:03:23;99942.56;;;19.60;34.33
64189;BME280;50493;50.970;10.082;2022-08-11T02:05:57;99940.19;;;19.53;34.27
64189;BME280;50493;50.970;10.082;2022-08-11T02:08:34;99945.66;;;19.50;34.24
64189;BME280;50493;50.970;10.082;2022-08-11T02:11:16;99946.84;;;19.45;34.51
64189;BME280;50493;50.970;10.082;2022-08-11T02:13:59;99947.84;;;19.42;34.52
64189;BME280;50493;50.970;10.082;2022-08-11T02:16:35;99937.66;;;19.33;34.43
64189;BME280;50493;50.970;10.082;2022-08-11T02:19:11;99937.25;;;19.23;34.60
64189;BME280;50493;50.970;10.082;2022-08-11T02:22:05;99939.84;;;19.25;34.48
64189;BME280;50493;50.970;10.082;2022-08-11T02:24:57;99944.50;;;19.19;34.77
64189;BME280;50493;50.970;10.082;2022-08-11T02:27:33;99939.41;;;19.15;34.91
64189;BME280;50493;50.970;10.082;2022-08-11T02:30:04;99945.75;;;19.12;34.66
64189;BME280;50493;50.970;10.082;2022-08-11T02:32:35;99937.00;;;19.10;34.77
64189;BME280;50493;50.970;10.082;2022-08-11T02:35:25;99938.72;;;19.11;34.88
64189;BME280;50493;50.970;10.082;2022-08-11T02:38:00;99944.38;;;19.03;34.88
64189;BME280;50493;50.970;10.082;2022-08-11T02:40:42;99939.00;;;19.05;34.62
64189;BME280;50493;50.970;10.082;2022-08-11T02:43:21;99935.56;;;19.03;34.59
64189;BME280;50493;50.970;10.082;2022-08-11T02:45:53;99938.34;;;19.00;34.40
64189;BME280;50493;50.970;10.082;2022-08-11T02:48:30;99938.44;;;18.98;34.57
64189;BME280;50493;50.970;10.082;2022-08-11T02:51:25;99940.38;;;18.95;34.45
64189;BME280;50493;50.970;10.082;2022-08-11T02:53:58;99939.59;;;18.93;34.80
64189;BME280;50493;50.970;10.082;2022-08-11T02:56:38;99935.09;;;18.95;34.53
64189;BME280;50493;50.970;10.082;2022-08-11T02:59:18;99938.94;;;18.87;34.24
64189;BME280;50493;50.970;10.082;2022-08-11T03:02:10;99945.75;;;18.74;35.01
64189;BME280;50493;50.970;10.082;2022-08-11T03:04:47;99945.16;;;18.67;34.82
64189;BME280;50493;50.970;10.082;2022-08-11T03:07:22;99942.75;;;18.63;34.80
64189;BME280;50493;50.970;10.082;2022-08-11T03:09:54;99943.03;;;18.57;34.93
64189;BME280;50493;50.970;10.082;2022-08-11T03:12:24;99941.72;;;18.46;35.27
64189;BME280;50493;50.970;10.082;2022-08-11T03:15:18;99948.06;;;18.42;35.10
64189;BME280;50493;50.970;10.082;2022-08-11T03:18:11;99946.63;;;18.35;35.42
64189;BME280;50493;50.970;10.082;2022-08-11T03:20:45;99944.03;;;18.33;35.48
64189;BME280;50493;50.970;10.082;2022-08-11T03:23:18;99940.69;;;18.30;35.23
64189;BME280;50493;50.970;10.082;2022-08-11T03:25:56;99945.84;;;18.33;35.09
64189;BME280;50493;50.970;10.082;2022-08-11T03:28:27;99945.03;;;18.31;35.41
64189;BME280;50493;50.970;10.082;2022-08-11T03:31:04;99945.34;;;18.25;35.26
64189;BME280;50493;50.970;10.082;2022-08-11T03:33:34;99946.50;;;18.17;35.55
64189;BME280;50493;50.970;10.082;2022-08-11T03:36:31;99948.22;;;18.18;35.16
64189;BME280;50493;50.970;10.082;2022-08-11T03:39:08;99952.22;;;18.08;35.64
64189;BME280;50493;50.970;10.082;2022-08-11T03:41:39;99952.28;;;18.07;35.32
64189;BME280;50493;50.970;10.082;2022-08-11T03:44:31;99952.50;;;18.02;35.33
64189;BME280;50493;50.970;10.082;2022-08-11T03:47:10;99956.88;;;18.03;35.42
64189;BME280;50493;50.970;10.082;2022-08-11T03:50:02;99954.63;;;17.94;35.75
64189;BME280;50493;50.970;10.082;2022-08-11T03:52:47;99962.75;;;17.89;35.42
64189;BME280;50493;50.970;10.082;2022-08-11T03:55:22;99966.50;;;17.83;35.53
64189;BME280;50493;50.970;10.082;2022-08-11T04:01:21;99960.59;;;17.77;35.88
64189;BME280;50493;50.970;10.082;2022-08-11T04:04:21;99960.00;;;17.70;35.74
64189;BME280;50493;50.970;10.082;2022-08-11T04:07:13;99964.47;;;17.68;35.54
64189;BME280;50493;50.970;10.082;2022-08-11T04:10:05;99961.66;;;17.73;35.54
64189;BME280;50493;50.970;10.082;2022-08-11T04:12:42;99967.84;;;17.73;35.40
64189;BME280;50493;50.970;10.082;2022-08-11T04:15:31;99972.66;;;17.62;35.50
64189;BME280;50493;50.970;10.082;2022-08-11T04:19:02;99968.50;;;17.56;35.58
64189;BME280;50493;50.970;10.082;2022-08-11T04:22:14;99974.25;;;17.66;35.47
64189;BME280;50493;50.970;10.082;2022-08-11T04:24:56;99971.75;;;17.63;35.57
64189;BME280;50493;50.970;10.082;2022-08-11T04:30:10;99965.72;;;18.02;34.85
64189;BME280;50493;50.970;10.082;2022-08-11T04:32:54;99968.78;;;18.32;33.81
64189;BME280;50493;50.970;10.082;2022-08-11T04:35:35;99968.25;;;18.24;37.83
64189;BME280;50493;50.970;10.082;2022-08-11T04:38:24;99961.94;;;18.68;33.19
64189;BME280;50493;50.970;10.082;2022-08-11T04:41:18;99964.78;;;19.20;32.62
64189;BME280;50493;50.970;10.082;2022-08-11T04:44:11;99969.22;;;19.57;31.37
64189;BME280;50493;50.970;10.082;2022-08-11T04:47:05;99955.50;;;19.83;31.14
64189;BME280;50493;50.970;10.082;2022-08-11T04:50:00;99960.53;;;20.23;30.26
64189;BME280;50493;50.970;10.082;2022-08-11T04:53:18;99962.34;;;20.88;29.34
64189;BME280;50493;50.970;10.082;2022-08-11T04:56:09;99969.75;;;20.99;28.96
64189;BME280;50493;50.970;10.082;2022-08-11T04:59:18;99965.00;;;20.88;28.99
64189;BME280;50493;50.970;10.082;2022-08-11T05:02:31;99967.09;;;21.31;28.43
64189;BME280;50493;50.970;10.082;2022-08-11T05:05:11;99966.97;;;21.48;28.04
64189;BME280;50493;50.970;10.082;2022-08-11T05:08:14;99967.16;;;22.20;30.47
64189;BME280;50493;50.970;10.082;2022-08-11T05:11:02;99959.09;;;22.08;27.11
64189;BME280;50493;50.970;10.082;2022-08-11T05:13:34;99956.91;;;22.72;25.97
64189;BME280;50493;50.970;10.082;2022-08-11T05:16:24;99962.81;;;23.46;30.69
64189;BME280;50493;50.970;10.082;2022-08-11T05:19:14;99964.09;;;23.94;31.13
64189;BME280;50493;50.970;10.082;2022-08-11T05:21:59;99977.63;;;21.32;33.79
64189;BME280;50493;50.970;10.082;2022-08-11T05:24:46;99981.19;;;23.23;32.13
64189;BME280;50493;50.970;10.082;2022-08-11T05:27:35;99975.66;;;23.67;31.29
64189;BME280;50493;50.970;10.082;2022-08-11T05:30:26;99973.13;;;23.38;31.36
64189;BME280;50493;50.970;10.082;2022-08-11T05:33:15;99981.81;;;22.85;32.40
64189;BME280;50493;50.970;10.082;2022-08-11T05:36:10;99975.34;;;23.04;31.65
64189;BME280;50493;50.970;10.082;2022-08-11T05:38:37;99973.59;;;23.17;31.97
64189;BME280;50493;50.970;10.082;2022-08-11T05:41:24;99975.47;;;23.70;31.18
64189;BME280;50493;50.970;10.082;2022-08-11T05:44:17;99972.94;;;24.84;29.80
64189;BME280;50493;50.970;10.082;2022-08-11T05:47:03;99982.53;;;22.60;33.76
64189;BME280;50493;50.970;10.082;2022-08-11T05:49:48;99981.41;;;23.75;30.40
64189;BME280;50493;50.970;10.082;2022-08-11T05:52:33;99982.91;;;23.79;30.21
64189;BME280;50493;50.970;10.082;2022-08-11T05:55:20;99977.03;;;23.60;30.95
64189;BME280;50493;50.970;10.082;2022-08-11T05:58:05;99980.22;;;25.19;28.98
64189;BME280;50493;50.970;10.082;2022-08-11T06:00:40;99976.31;;;25.36;28.20
64189;BME280;50493;50.970;10.082;2022-08-11T06:03:07;99976.88;;;26.58;26.90
64189;BME280;50493;50.970;10.082;2022-08-11T06:05:36;99978.97;;;25.61;27.34
64189;BME280;50493;50.970;10.082;2022-08-11T06:08:03;99977.91;;;25.63;28.31
64189;BME280;50493;50.970;10.082;2022-08-11T06:10:32;99984.41;;;25.83;27.56
64189;BME280;50493;50.970;10.082;2022-08-11T06:12:59;99980.63;;;25.26;28.35
64189;BME280;50493;50.970;10.082;2022-08-11T06:15:26;99976.81;;;26.13;28.16
64189;BME280;50493;50.970;10.082;2022-08-11T06:17:53;99973.41;;;27.78;25.85
64189;BME280;50493;50.970;10.082;2022-08-11T06:35:09;99970.69;;;25.04;29.83
64189;BME280;50493;50.970;10.082;2022-08-11T06:37:43;99977.16;;;24.63;31.48
64189;BME280;50493;50.970;10.082;2022-08-11T06:40:16;99969.38;;;25.34;30.24
64189;BME280;50493;50.970;10.082;2022-08-11T06:42:52;99973.75;;;26.06;29.05
64189;BME280;50493;50.970;10.082;2022-08-11T06:45:25;99971.28;;;27.28;27.81
64189;BME280;50493;50.970;10.082;2022-08-11T06:47:52;99963.91;;;29.18;24.15
64189;BME280;50493;50.970;10.082;2022-08-11T06:50:21;99972.31;;;28.22;26.00
64189;BME280;50493;50.970;10.082;2022-08-11T06:53:07;99968.66;;;26.14;28.43
64189;BME280;50493;50.970;10.082;2022-08-11T06:55:38;99963.00;;;28.27;26.04
64189;BME280;50493;50.970;10.082;2022-08-11T06:58:27;99955.03;;;28.46;25.51
64189;BME280;50493;50.970;10.082;2022-08-11T07:01:15;99949.78;;;28.45;26.57
64189;BME280;50493;50.970;10.082;2022-08-11T07:03:45;99957.16;;;28.52;26.11
64189;BME280;50493;50.970;10.082;2022-08-11T07:06:24;99959.16;;;29.01;24.88
64189;BME280;50493;50.970;10.082;2022-08-11T07:09:20;99957.28;;;30.29;23.64
64189;BME280;50493;50.970;10.082;2022-08-11T07:12:33;99951.94;;;30.74;22.58
64189;BME280;50493;50.970;10.082;2022-08-11T07:15:25;99954.03;;;30.63;22.86
64189;BME280;50493;50.970;10.082;2022-08-11T07:18:09;99954.13;;;31.71;22.14
64189;BME280;50493;50.970;10.082;2022-08-11T07:20:54;99951.94;;;31.93;21.07
64189;BME280;50493;50.970;10.082;2022-08-11T07:23:53;99955.03;;;31.25;21.61
64189;BME280;50493;50.970;10.082;2022-08-11T07:26:39;99947.41;;;30.75;22.01
64189;BME280;50493;50.970;10.082;2022-08-11T07:29:28;99945.91;;;30.90;20.95
64189;BME280;50493;50.970;10.082;2022-08-11T07:31:56;99941.81;;;30.31;22.13
64189;BME280;50493;50.970;10.082;2022-08-11T07:34:30;99945.47;;;30.95;20.94
64189;BME280;50493;50.970;10.082;2022-08-11T07:36:58;99955.19;;;30.50;21.22
64189;BME280;50493;50.970;10.082;2022-08-11T07:39:26;99946.78;;;30.26;20.99
64189;BME280;50493;50.970;10.082;2022-08-11T07:41:54;99936.53;;;30.67;21.17
64189;BME280;50493;50.970;10.082;2022-08-11T07:44:21;99945.03;;;29.77;22.11
64189;BME280;50493;50.970;10.082;2022-08-11T07:46:51;99939.31;;;30.47;21.43
64189;BME280;50493;50.970;10.082;2022-08-11T07:49:38;99940.84;;;31.60;19.91
64189;BME280;50493;50.970;10.082;2022-08-11T07:52:24;99936.44;;;31.58;19.79
64189;BME280;50493;50.970;10.082;2022-08-11T07:54:57;99937.22;;;30.69;20.42
64189;BME280;50493;50.970;10.082;2022-08-11T07:57:24;99929.25;;;32.12;19.44
64189;BME280;50493;50.970;10.082;2022-08-11T08:00:09;99932.56;;;31.35;20.11
64189;BME280;50493;50.970;10.082;2022-08-11T08:02:53;99933.22;;;31.19;20.43
64189;BME280;50493;50.970;10.082;2022-08-11T08:05:38;99934.13;;;30.91;20.46
64189;BME280;50493;50.970;10.082;2022-08-11T08:08:22;99934.53;;;30.97;20.41
64189;BME280;50493;50.970;10.082;2022-08-11T08:11:08;99931.25;;;32.36;19.54
64189;BME280;50493;50.970;10.082;2022-08-11T08:13:53;99925.81;;;32.79;18.45
64189;BME280;50493;50.970;10.082;2022-08-11T08:16:38;99929.16;;;31.77;19.71
64189;BME280;50493;50.970;10.082;2022-08-11T08:19:22;99924.75;;;32.29;19.26
64189;BME280;50493;50.970;10.082;2022-08-11T08:21:48;99931.03;;;33.72;17.69
64189;BME280;50493;50.970;10.082;2022-08-11T08:24:15;99922.56;;;32.67;18.97
64189;BME280;50493;50.970;10.082;2022-08-11T08:26:43;99924.88;;;32.96;18.70
64189;BME280;50493;50.970;10.082;2022-08-11T08:29:24;99916.81;;;33.54;17.36
64189;BME280;50493;50.970;10.082;2022-08-11T08:32:10;99913.38;;;33.11;17.97
64189;BME280;50493;50.970;10.082;2022-08-11T08:34:36;99916.09;;;33.11;18.57
64189;BME280;50493;50.970;10.082;2022-08-11T08:37:04;99908.16;;;32.58;18.49
64189;BME280;50493;50.970;10.082;2022-08-11T08:39:30;99918.97;;;33.17;18.86
64189;BME280;50493;50.970;10.082;2022-08-11T08:42:02;99915.25;;;33.84;17.33
64189;BME280;50493;50.970;10.082;2022-08-11T08:44:31;99919.66;;;33.77;17.76
64189;BME280;50493;50.970;10.082;2022-08-11T08:46:59;99914.94;;;33.87;18.03
64189;BME280;50493;50.970;10.082;2022-08-11T08:49:29;99916.25;;;34.48;16.58
64189;BME280;50493;50.970;10.082;2022-08-11T08:51:57;99912.41;;;34.42;16.75
64189;BME280;50493;50.970;10.082;2022-08-11T08:54:31;99907.84;;;32.27;19.33
64189;BME280;50493;50.970;10.082;2022-08-11T08:57:00;99907.53;;;31.77;20.40
64189;BME280;50493;50.970;10.082;2022-08-11T08:59:30;99902.34;;;34.03;17.89
64189;BME280;50493;50.970;10.082;2022-08-11T09:02:00;99913.38;;;34.89;17.40
64189;BME280;50493;50.970;10.082;2022-08-11T09:04:27;99902.44;;;35.20;16.58
64189;BME280;50493;50.970;10.082;2022-08-11T09:06:55;99906.88;;;34.58;17.44
64189;BME280;50493;50.970;10.082;2022-08-11T09:09:21;99905.72;;;34.05;18.15
64189;BME280;50493;50.970;10.082;2022-08-11T09:11:47;99902.38;;;32.96;18.88
64189;BME280;50493;50.970;10.082;2022-08-11T09:14:23;99905.44;;;32.50;19.64
64189;BME280;50493;50.970;10.082;2022-08-11T09:16:50;99899.72;;;32.69;19.29
64189;BME280;50493;50.970;10.082;2022-08-11T09:19:17;99901.56;;;32.52;18.38
64189;BME280;50493;50.970;10.082;2022-08-11T09:21:45;99899.34;;;32.13;19.20
64189;BME280;50493;50.970;10.082;2022-08-11T09:24:32;99898.97;;;32.85;17.91
64189;BME280;50493;50.970;10.082;2022-08-11T09:27:18;99886.81;;;32.12;17.97
64189;BME280;50493;50.970;10.082;2022-08-11T09:29:46;99889.06;;;31.90;18.36
64189;BME280;50493;50.970;10.082;2022-08-11T09:32:11;99892.94;;;33.41;18.07
64189;BME280;50493;50.970;10.082;2022-08-11T09:34:39;99885.13;;;33.30;18.90
64189;BME280;50493;50.970;10.082;2022-08-11T09:37:05;99886.81;;;32.12;20.12
64189;BME280;50493;50.970;10.082;2022-08-11T09:39:51;99884.78;;;33.16;19.15
64189;BME280;50493;50.970;10.082;2022-08-11T09:42:36;99877.59;;;32.66;18.50
64189;BME280;50493;50.970;10.082;2022-08-11T09:45:22;99878.41;;;32.66;19.79
64189;BME280;50493;50.970;10.082;2022-08-11T09:47:48;99881.81;;;32.25;19.33
64189;BME280;50493;50.970;10.082;2022-08-11T09:50:15;99880.09;;;32.24;18.44
64189;BME280;50493;50.970;10.082;2022-08-11T09:52:43;99868.38;;;32.42;18.53
64189;BME280;50493;50.970;10.082;2022-08-11T09:55:09;99871.31;;;32.65;18.73
64189;BME280;50493;50.970;10.082;2022-08-11T09:57:39;99870.63;;;32.55;18.73
64189;BME280;50493;50.970;10.082;2022-08-11T10:00:29;99867.47;;;32.92;18.44
64189;BME280;50493;50.970;10.082;2022-08-11T10:02:55;99873.69;;;30.56;18.13
64189;BME280;50493;50.970;10.082;2022-08-11T10:05:21;99856.03;;;32.48;17.79
64189;BME280;50493;50.970;10.082;2022-08-11T10:08:09;99853.97;;;33.50;16.64
64189;BME280;50493;50.970;10.082;2022-08-11T10:10:37;99849.81;;;32.64;17.42
64189;BME280;50493;50.970;10.082;2022-08-11T10:13:06;99844.84;;;31.73;19.13
64189;BME280;50493;50.970;10.082;2022-08-11T10:15:35;99848.00;;;32.21;18.31
64189;BME280;50493;50.970;10.082;2022-08-11T10:18:05;99842.03;;;29.93;20.25
64189;BME280;50493;50.970;10.082;2022-08-11T10:20:52;99853.38;;;29.20;20.16
64189;BME280;50493;50.970;10.082;2022-08-11T10:23:19;99838.53;;;30.48;19.12
64189;BME280;50493;50.970;10.082;2022-08-11T10:26:05;99837.75;;;31.46;18.67
64189;BME280;50493;50.970;10.082;2022-08-11T10:28:51;99827.16;;;32.56;17.42
64189;BME280;50493;50.970;10.082;2022-08-11T10:31:20;99836.34;;;32.88;16.50
64189;BME280;50493;50.970;10.082;2022-08-11T10:34:06;99830.22;;;32.62;16.67
64189;BME280;50493;50.970;10.082;2022-08-11T10:36:34;99831.41;;;31.55;17.54
64189;BME280;50493;50.970;10.082;2022-08-11T10:39:06;99829.13;;;31.69;17.36
64189;BME280;50493;50.970;10.082;2022-08-11T10:41:33;99824.69;;;32.29;17.16
64189;BME280;50493;50.970;10.082;2022-08-11T10:44:18;99825.00;;;32.68;16.65
64189;BME280;50493;50.970;10.082;2022-08-11T10:46:46;99815.47;;;31.26;18.09
64189;BME280;50493;50.970;10.082;2022-08-11T10:49:31;99827.00;;;31.10;17.94
64189;BME280;50493;50.970;10.082;2022-08-11T10:51:57;99818.94;;;30.46;19.21
64189;BME280;50493;50.970;10.082;2022-08-11T10:54:43;99822.94;;;29.86;20.01
64189;BME280;50493;50.970;10.082;2022-08-11T10:57:27;99817.19;;;31.45;17.41
64189;BME280;50493;50.970;10.082;2022-08-11T11:00:13;99814.34;;;31.11;18.46
64189;BME280;50493;50.970;10.082;2022-08-11T11:02:41;99820.69;;;32.49;16.39
64189;BME280;50493;50.970;10.082;2022-08-11T11:05:12;99817.00;;;31.73;17.42
64189;BME280;50493;50.970;10.082;2022-08-11T11:07:48;99808.91;;;32.07;16.22
64189;BME280;50493;50.970;10.082;2022-08-11T11:10:14;99810.22;;;32.46;17.03
64189;BME280;50493;50.970;10.082;2022-08-11T11:12:43;99815.47;;;32.48;16.70
64189;BME280;50493;50.970;10.082;2022-08-11T11:15:30;99799.13;;;32.74;16.72
64189;BME280;50493;50.970;10.082;2022-08-11T11:18:19;99803.91;;;32.97;16.67
64189;BME280;50493;50.970;10.082;2022-08-11T11:20:48;99816.81;;;31.04;18.20
64189;BME280;50493;50.970;10.082;2022-08-11T11:23:17;99822.47;;;29.34;19.55
64189;BME280;50493;50.970;10.082;2022-08-11T11:26:17;99802.63;;;30.66;19.31
64189;BME280;50493;50.970;10.082;2022-08-11T11:29:14;99801.22;;;32.29;17.07
64189;BME280;50493;50.970;10.082;2022-08-11T11:31:52;99804.72;;;32.21;16.88
64189;BME280;50493;50.970;10.082;2022-08-11T11:34:41;99805.38;;;32.23;17.09
64189;BME280;50493;50.970;10.082;2022-08-11T11:37:14;99795.06;;;32.78;16.42
64189;BME280;50493;50.970;10.082;2022-08-11T11:39:42;99788.97;;;32.84;16.27
64189;BME280;50493;50.970;10.082;2022-08-11T11:42:09;99782.53;;;33.27;15.91
64189;BME280;50493;50.970;10.082;2022-08-11T11:44:36;99785.22;;;32.69;16.72
64189;BME280;50493;50.970;10.082;2022-08-11T11:47:02;99781.16;;;32.40;17.29
64189;BME280;50493;50.970;10.082;2022-08-11T11:49:30;99786.50;;;32.32;17.33
64189;BME280;50493;50.970;10.082;2022-08-11T11:51:57;99783.72;;;31.20;18.37
64189;BME280;50493;50.970;10.082;2022-08-11T11:54:25;99788.50;;;32.21;18.06
64189;BME280;50493;50.970;10.082;2022-08-11T11:56:52;99778.59;;;32.38;17.41
64189;BME280;50493;50.970;10.082;2022-08-11T11:59:18;99779.06;;;31.83;17.33
64189;BME280;50493;50.970;10.082;2022-08-11T12:02:03;99782.44;;;31.06;17.39
64189;BME280;50493;50.970;10.082;2022-08-11T12:04:30;99792.25;;;29.97;18.71
64189;BME280;50493;50.970;10.082;2022-08-11T12:06:56;99779.72;;;30.34;19.17
64189;BME280;50493;50.970;10.082;2022-08-11T12:09:43;99779.53;;;31.25;17.82
64189;BME280;50493;50.970;10.082;2022-08-11T12:12:10;99767.28;;;32.00;17.88
64189;BME280;50493;50.970;10.082;2022-08-11T12:14:55;99768.28;;;33.41;16.41
64189;BME280;50493;50.970;10.082;2022-08-11T12:17:21;99756.53;;;30.77;18.00
64189;BME280;50493;50.970;10.082;2022-08-11T12:19:48;99761.91;;;31.39;16.45
64189;BME280;50493;50.970;10.082;2022-08-11T12:22:15;99756.38;;;30.61;17.83
64189;BME280;50493;50.970;10.082;2022-08-11T12:24:59;99748.00;;;30.28;18.36
64189;BME280;50493;50.970;10.082;2022-08-11T12:27:44;99745.88;;;32.15;18.39
64189;BME280;50493;50.970;10.082;2022-08-11T12:30:10;99744.13;;;31.98;18.71
64189;BME280;50493;50.970;10.082;2022-08-11T12:32:38;99742.44;;;31.28;18.05
64189;BME280;50493;50.970;10.082;2022-08-11T12:35:07;99739.59;;;31.11;17.53
64189;BME280;50493;50.970;10.082;2022-08-11T12:37:35;99740.47;;;32.07;19.23
64189;BME280;50493;50.970;10.082;2022-08-11T12:40:02;99726.41;;;31.61;16.87
64189;BME280;50493;50.970;10.082;2022-08-11T12:42:48;99735.91;;;31.73;17.67
64189;BME280;50493;50.970;10.082;2022-08-11T12:45:32;99724.47;;;31.18;17.55
64189;BME280;50493;50.970;10.082;2022-08-11T12:48:06;99727.25;;;30.82;17.05
64189;BME280;50493;50.970;10.082;2022-08-11T12:50:55;99718.13;;;31.01;17.95
64189;BME280;50493;50.970;10.082;2022-08-11T12:53:45;99714.41;;;31.55;18.03
64189;BME280;50493;50.970;10.082;2022-08-11T12:56:17;99713.69;;;32.63;17.20
64189;BME280;50493;50.970;10.082;2022-08-11T12:59:02;99712.00;;;32.95;18.62
64189;BME280;50493;50.970;10.082;2022-08-11T13:01:46;99704.00;;;33.27;16.47
64189;BME280;50493;50.970;10.082;2022-08-11T13:04:30;99706.75;;;32.36;16.37
64189;BME280;50493;50.970;10.082;2022-08-11T13:07:16;99695.81;;;31.25;17.52
64189;BME280;50493;50.970;10.082;2022-08-11T13:09:43;99703.50;;;31.30;17.72
64189;BME280;50493;50.970;10.082;2022-08-11T13:12:09;99698.84;;;31.22;17.44
64189;BME280;50493;50.970;10.082;2022-08-11T13:14:54;99698.28;;;30.48;17.49
64189;BME280;50493;50.970;10.082;2022-08-11T13:17:20;99701.22;;;31.25;21.83
64189;BME280;50493;50.970;10.082;2022-08-11T13:19:47;99692.72;;;32.49;21.83
64189;BME280;50493;50.970;10.082;2022-08-11T13:22:16;99687.28;;;32.65;20.12
64189;BME280;50493;50.970;10.082;2022-08-11T13:24:42;99687.28;;;32.65;19.79
64189;BME280;50493;50.970;10.082;2022-08-11T13:27:08;99684.25;;;32.93;17.23
64189;BME280;50493;50.970;10.082;2022-08-11T13:29:37;99684.41;;;33.00;17.13
64189;BME280;50493;50.970;10.082;2022-08-11T13:32:06;99685.00;;;31.95;19.03
64189;BME280;50493;50.970;10.082;2022-08-11T13:34:33;99690.53;;;32.61;16.74
64189;BME280;50493;50.970;10.082;2022-08-11T13:37:06;99686.47;;;32.48;16.70
64189;BME280;50493;50.970;10.082;2022-08-11T13:39:35;99677.78;;;33.19;18.29
64189;BME280;50493;50.970;10.082;2022-08-11T13:42:02;99679.31;;;32.80;15.97
64189;BME280;50493;50.970;10.082;2022-08-11T13:44:31;99684.94;;;31.35;17.80
64189;BME280;50493;50.970;10.082;2022-08-11T13:46:58;99675.88;;;31.45;18.12
64189;BME280;50493;50.970;10.082;2022-08-11T13:49:25;99681.66;;;31.93;17.79
64189;BME280;50493;50.970;10.082;2022-08-11T13:51:53;99680.44;;;31.44;17.84
64189;BME280;50493;50.970;10.082;2022-08-11T13:54:22;99666.94;;;30.91;17.82
64189;BME280;50493;50.970;10.082;2022-08-11T13:56:52;99669.34;;;30.77;18.03
64189;BME280;50493;50.970;10.082;2022-08-11T13:59:20;99664.41;;;32.02;22.77
64189;BME280;50493;50.970;10.082;2022-08-11T14:01:48;99662.03;;;31.90;16.99
64189;BME280;50493;50.970;10.082;2022-08-11T14:04:18;99659.09;;;31.33;17.80
64189;BME280;50493;50.970;10.082;2022-08-11T14:06:51;99663.63;;;30.53;17.84
64189;BME280;50493;50.970;10.082;2022-08-11T14:09:22;99645.78;;;30.79;17.95
64189;BME280;50493;50.970;10.082;2022-08-11T14:11:52;99645.16;;;31.88;19.74
64189;BME280;50493;50.970;10.082;2022-08-11T14:14:39;99640.75;;;31.10;16.80
64189;BME280;50493;50.970;10.082;2022-08-11T14:17:06;99644.97;;;30.42;17.37